Duck, NC

7:45 AM EST on December 29, 2014 (GMT -0500)
Martin's Point | Change Station
CLOSE
Current Station
Personal Weather Station
Location: Kitty Hawk, NC
Elevation: 0 ft
Nearby Weather Stations

Elev 0 ft 36.11 °N, 75.75 °W | Updated 3 minutes ago

Mostly Cloudy
Mostly Cloudy
49.8 °F
Feels Like 45 °F
N
14.0
Wind Variable Wind from NNW
Gusts 19.0 mph

Today
High -- | Low -- °F
--% Chance of Precip.
Yesterday
High -- | Low -- °F
Precip. -- in
7:13 AM 4:56 PM
First Quarter, 58% visible
Pressure 30.10 in
Visibility 4.0 miles
Clouds Scattered Clouds 1800 ft
Scattered Clouds 3000 ft
Overcast 3700 ft
Windchill 45 °F
Dew Point 49 °F
Humidity 97%
Rainfall 0.05 in
Snow Depth Not available.
UV 0 out of 12
Pollen .10 out of 12
Air Quality Not available.
Flu Activity Not available.
METAR KFFA 291235Z AUTO 01008KT 340V050 4SM -RA SCT018 SCT030 OVC037 10/10 A3010 RMK AO2 P0001 T01000100

More Conditions Fewer Conditions

Pressure 30.10 in
Visibility 4.0 miles
Clouds Scattered Clouds 1800 ft
Scattered Clouds 3000 ft
Overcast 3700 ft
Windchill 45 °F
Dew Point 49 °F
Humidity 97%
Rainfall 0.05 in
Snow Depth Not available.
UV 0 out of 12
Pollen .10 out of 12
Air Quality Not available.
Flu Activity Not available.
METAR KFFA 291235Z AUTO 01008KT 340V050 4SM -RA SCT018 SCT030 OVC037 10/10 A3010 RMK AO2 P0001 T01000100

More Conditions Fewer Conditions

10-Day Weather Forecast

Almanac

Astronomy

Dec. 29, 2014 Rise Set
Actual Time
Civil Twilight
Nautical Twilight
Astronomical Twilight
Moon
Length of Visible Light
Length of Day
Tomorrow will be .
, % of the Moon is Illuminated

Today's Extremes

State Highs State Lows

Community

WunderPhotos

Upload Photos

1,781,574 photos uploaded!

WunderBlogs® & News

Nearby

Air Quality

  Air Quality AQ Index Pollutant
Not available.

Snow Depth

Station Depth Elevation

Earthquake Activity

City Distance Mag. Time & Date
Minimum magnitude displayed is 2.5.

Coastal Water Temperatures

Place Temperature

Nearby Weather Stations